Time;durP1;ratioP1;P1;durP2;ratioP2;P2;SDS_P1;SDS_P2;PMS_P1;PMS_P2;Temp;Humidity;BMP_temperature;BMP_pressure;BME280_temperature;BME280_humidity;BME280_pressure;Samples;Min_cycle;Max_cycle;Signal;HPM_P1;HPM_P2
2022/08/08 00:02:00;;;;;;;0.80;0.40;;;26.80;66.60;;;;;;5013525;28;20032;-24
2022/08/08 00:04:43;;;;;;;0.70;0.43;;;26.80;66.60;;;;;;5014127;28;20075;-24
2022/08/08 00:07:42;;;;;;;0.60;0.40;;;26.80;66.60;;;;;;5013166;28;20022;-23
2022/08/08 00:10:16;;;;;;;2.50;0.35;;;26.80;66.50;;;;;;5013412;28;20033;-24
2022/08/08 00:13:01;;;;;;;0.50;0.43;;;26.80;66.60;;;;;;5013541;28;20022;-24
2022/08/08 00:15:34;;;;;;;0.77;0.52;;;26.80;66.60;;;;;;5013656;28;20501;-24
2022/08/08 00:18:11;;;;;;;0.60;0.43;;;26.80;66.60;;;;;;5013398;28;20021;-24
2022/08/08 00:20:43;;;;;;;0.95;0.57;;;26.70;66.50;;;;;;5014099;28;20161;-24
2022/08/08 00:23:40;;;;;;;0.60;0.57;;;26.70;66.50;;;;;;5013478;28;20014;-25
2022/08/08 00:26:09;;;;;;;0.47;0.47;;;26.70;66.50;;;;;;5007846;28;20042;-24
2022/08/08 00:28:43;;;;;;;0.90;0.52;;;26.70;66.50;;;;;;4995999;28;20022;-24
2022/08/08 00:31:16;;;;;;;1.23;0.50;;;26.70;66.40;;;;;;5013838;28;20490;-24
2022/08/08 00:35:09;;;;;;;0.85;0.40;;;26.70;66.40;;;;;;5013758;28;20104;-24
2022/08/08 00:36:48;;;;;;;0.85;0.40;;;26.70;66.40;;;;;;5013277;28;20041;-24
2022/08/08 00:39:21;;;;;;;1.27;0.60;;;26.70;66.40;;;;;;5013520;28;20116;-24
2022/08/08 00:41:52;;;;;;;0.73;0.50;;;26.70;66.50;;;;;;5013584;28;20094;-24
2022/08/08 00:44:48;;;;;;;1.15;0.50;;;26.70;66.40;;;;;;5013294;28;20054;-24
2022/08/08 00:48:05;;;;;;;0.82;0.50;;;26.70;66.40;;;;;;5013013;28;20101;-24
2022/08/08 00:51:25;;;;;;;0.80;0.55;;;26.60;66.30;;;;;;4987941;28;20034;-24
2022/08/08 00:54:24;;;;;;;0.73;0.43;;;26.60;66.30;;;;;;4952510;29;20374;-24
2022/08/08 00:57:20;;;;;;;1.48;0.63;;;26.70;66.40;;;;;;5013067;28;20022;-24
2022/08/08 01:00:02;;;;;;;1.00;0.50;;;26.60;66.30;;;;;;5013660;28;20026;-24
2022/08/08 01:02:52;;;;;;;2.20;0.55;;;26.60;66.30;;;;;;5013381;28;20056;-24
2022/08/08 01:05:39;;;;;;;1.38;0.50;;;26.60;66.30;;;;;;5013332;28;20037;-24
2022/08/08 01:08:42;;;;;;;0.55;0.35;;;26.60;66.40;;;;;;5011891;28;20479;-24
2022/08/08 01:11:46;;;;;;;0.40;0.30;;;26.60;66.30;;;;;;5012991;28;20026;-23
2022/08/08 01:14:46;;;;;;;0.60;0.47;;;26.60;66.30;;;;;;5013198;28;20129;-23
2022/08/08 01:17:18;;;;;;;1.13;0.43;;;26.50;66.20;;;;;;4980414;28;20045;-24
2022/08/08 01:19:47;;;;;;;1.55;0.52;;;26.60;66.30;;;;;;5013561;28;20030;-23
2022/08/08 01:22:21;;;;;;;0.70;0.50;;;26.50;66.30;;;;;;5014155;28;20046;-24
2022/08/08 01:25:12;;;;;;;0.82;0.40;;;26.50;66.30;;;;;;5014838;28;20058;-23
2022/08/08 01:27:56;;;;;;;1.17;0.47;;;26.50;66.20;;;;;;5013021;28;20030;-24
2022/08/08 01:30:42;;;;;;;0.82;0.50;;;26.60;66.30;;;;;;5013359;28;20523;-23
2022/08/08 01:33:38;;;;;;;0.70;0.60;;;26.50;66.20;;;;;;5013320;28;20103;-24
2022/08/08 01:36:31;;;;;;;1.60;0.68;;;26.50;66.20;;;;;;5012797;28;20026;-23
2022/08/08 01:39:07;;;;;;;0.70;0.50;;;26.50;66.10;;;;;;5012673;28;20273;-24
2022/08/08 01:41:52;;;;;;;0.60;0.50;;;26.50;66.20;;;;;;5016725;28;20105;-24
2022/08/08 01:44:31;;;;;;;0.68;0.40;;;26.50;66.20;;;;;;5017038;28;20030;-24
2022/08/08 01:47:02;;;;;;;0.75;0.40;;;26.50;66.10;;;;;;5015018;28;20486;-24
2022/08/08 01:49:34;;;;;;;0.50;0.40;;;26.50;66.20;;;;;;5016652;28;20033;-24
2022/08/08 01:52:41;;;;;;;0.85;0.40;;;26.50;66.20;;;;;;5016642;28;20390;-24
2022/08/08 01:55:27;;;;;;;1.00;0.50;;;26.50;66.10;;;;;;5016251;28;20030;-24
2022/08/08 01:58:11;;;;;;;2.97;0.55;;;26.50;66.20;;;;;;5016724;28;20026;-24
2022/08/08 02:01:05;;;;;;;0.73;0.50;;;26.40;66.10;;;;;;5015113;28;20428;-24
2022/08/08 02:03:56;;;;;;;1.05;0.55;;;26.50;66.20;;;;;;5016288;28;20026;-24
2022/08/08 02:06:41;;;;;;;0.75;0.45;;;26.40;66.10;;;;;;5016343;28;20022;-24
2022/08/08 02:09:07;;;;;;;0.50;0.40;;;26.40;66.10;;;;;;5015388;28;20058;-24
2022/08/08 02:11:38;;;;;;;0.65;0.40;;;26.40;66.10;;;;;;4998796;28;20372;-24
2022/08/08 02:14:41;;;;;;;1.15;0.50;;;26.40;66.10;;;;;;5016152;28;20513;-24
2022/08/08 02:17:28;;;;;;;1.17;0.50;;;26.40;66.10;;;;;;4997684;28;20038;-24
2022/08/08 02:20:28;;;;;;;0.77;0.50;;;26.40;66.20;;;;;;4998539;28;20022;-24
2022/08/08 02:23:30;;;;;;;1.80;0.60;;;26.40;66.10;;;;;;5015783;28;20014;-24
2022/08/08 02:26:08;;;;;;;0.68;0.50;;;26.40;66.10;;;;;;5015510;28;20036;-24
2022/08/08 02:28:55;;;;;;;2.45;0.60;;;26.40;66.10;;;;;;5015863;28;20037;-24
2022/08/08 02:32:03;;;;;;;0.60;0.47;;;26.40;66.10;;;;;;5015966;28;20034;-24
2022/08/08 02:35:06;;;;;;;0.90;0.45;;;26.40;66.00;;;;;;5015480;28;20092;-24
2022/08/08 02:37:57;;;;;;;1.70;0.70;;;26.30;66.00;;;;;;5015078;28;20526;-24
2022/08/08 02:40:42;;;;;;;2.70;0.50;;;26.30;66.00;;;;;;5014849;28;20026;-24
2022/08/08 02:43:29;;;;;;;0.47;0.43;;;26.30;66.00;;;;;;5014691;28;20471;-24
2022/08/08 02:46:05;;;;;;;0.50;0.40;;;26.30;66.00;;;;;;5015466;28;20525;-24
2022/08/08 02:49:03;;;;;;;0.60;0.40;;;26.30;66.10;;;;;;5014704;28;20029;-24
2022/08/08 02:52:06;;;;;;;0.80;0.68;;;26.30;66.00;;;;;;5014584;28;20408;-24
2022/08/08 02:55:10;;;;;;;0.93;0.45;;;26.30;66.00;;;;;;5016508;28;20032;-24
2022/08/08 02:58:14;;;;;;;0.90;0.50;;;26.30;66.00;;;;;;5016296;28;20177;-24
2022/08/08 03:01:19;;;;;;;0.80;0.50;;;26.20;66.00;;;;;;5013483;28;20385;-24
2022/08/08 03:04:18;;;;;;;0.60;0.47;;;26.20;66.00;;;;;;4998026;28;20070;-24
2022/08/08 03:07:07;;;;;;;2.05;0.55;;;26.20;65.90;;;;;;5013822;28;20256;-24
2022/08/08 03:09:54;;;;;;;0.77;0.40;;;26.20;66.00;;;;;;5014572;28;20076;-24
2022/08/08 03:12:44;;;;;;;1.40;0.55;;;26.20;66.00;;;;;;5014995;28;20030;-24
2022/08/08 03:15:32;;;;;;;1.15;0.43;;;26.20;66.00;;;;;;5014205;28;20101;-24
2022/08/08 03:18:20;;;;;;;2.05;0.40;;;26.20;66.00;;;;;;5013603;28;20021;-24
2022/08/08 03:20:51;;;;;;;0.80;0.40;;;26.20;66.00;;;;;;4997152;28;20040;-24
2022/08/08 03:23:17;;;;;;;0.60;0.47;;;26.10;66.00;;;;;;5014348;28;20025;-24
2022/08/08 03:25:45;;;;;;;0.90;0.38;;;26.20;66.00;;;;;;5015299;28;20529;-24
2022/08/08 03:28:31;;;;;;;0.63;0.50;;;26.10;66.00;;;;;;5014419;28;20030;-24
2022/08/08 03:30:57;;;;;;;1.00;0.50;;;26.10;65.90;;;;;;5014116;28;20121;-24
2022/08/08 03:33:24;;;;;;;0.45;0.40;;;26.10;66.00;;;;;;5014029;28;20069;-24
2022/08/08 03:35:50;;;;;;;0.60;0.50;;;26.10;66.00;;;;;;5013842;28;20052;-24
2022/08/08 03:38:20;;;;;;;2.60;0.63;;;26.10;66.10;;;;;;5013574;28;20038;-24
2022/08/08 03:40:54;;;;;;;1.08;0.50;;;26.10;66.00;;;;;;5014082;28;20072;-24
2022/08/08 03:43:19;;;;;;;2.65;0.47;;;26.10;66.00;;;;;;5013480;28;20049;-24
2022/08/08 03:45:45;;;;;;;1.67;0.50;;;26.10;66.00;;;;;;5013359;28;20064;-24
2022/08/08 03:48:11;;;;;;;0.60;0.47;;;26.10;66.00;;;;;;5013341;28;20037;-24
2022/08/08 03:50:45;;;;;;;0.82;0.40;;;26.10;66.00;;;;;;5014599;28;20084;-25
2022/08/08 03:53:15;;;;;;;1.02;0.50;;;26.10;66.00;;;;;;5014463;28;20022;-25
2022/08/08 03:55:48;;;;;;;0.85;0.50;;;26.10;66.00;;;;;;5013874;28;20117;-24
2022/08/08 03:58:32;;;;;;;0.35;0.35;;;26.10;66.00;;;;;;5012824;28;20026;-24
2022/08/08 04:00:57;;;;;;;0.50;0.32;;;26.00;65.90;;;;;;5013267;28;20014;-24
2022/08/08 04:03:31;;;;;;;1.13;0.60;;;26.10;66.00;;;;;;5012175;28;20025;-25
2022/08/08 04:05:57;;;;;;;0.63;0.40;;;26.00;66.00;;;;;;5013791;28;20079;-25
2022/08/08 04:08:24;;;;;;;1.48;0.57;;;26.00;66.00;;;;;;5013157;28;20108;-24
2022/08/08 04:10:51;;;;;;;0.68;0.40;;;26.00;65.90;;;;;;5013497;28;20057;-24
2022/08/08 04:13:19;;;;;;;0.68;0.40;;;26.00;65.90;;;;;;5012967;28;20029;-24
2022/08/08 04:15:46;;;;;;;0.95;0.32;;;26.00;66.00;;;;;;5012952;28;20026;-24
2022/08/08 04:18:11;;;;;;;2.40;0.50;;;26.00;66.00;;;;;;5013440;28;20026;-25
2022/08/08 04:20:37;;;;;;;0.77;0.30;;;25.90;65.90;;;;;;5013070;28;20026;-25
2022/08/08 04:23:04;;;;;;;0.90;0.35;;;26.00;66.00;;;;;;5011800;28;20022;-25
2022/08/08 04:25:31;;;;;;;0.70;0.50;;;26.00;66.10;;;;;;5013326;28;20044;-25
2022/08/08 04:27:57;;;;;;;2.20;0.50;;;25.90;66.00;;;;;;5012488;28;20108;-25
2022/08/08 04:30:22;;;;;;;0.55;0.32;;;25.90;65.90;;;;;;5013358;28;20092;-25
2022/08/08 04:32:49;;;;;;;0.85;0.43;;;25.90;66.00;;;;;;5013652;28;20029;-25
2022/08/08 04:35:14;;;;;;;0.70;0.50;;;25.90;66.00;;;;;;5013650;28;20026;-25
2022/08/08 04:37:40;;;;;;;3.47;0.57;;;25.90;66.00;;;;;;5013057;28;20060;-25
2022/08/08 04:40:06;;;;;;;1.42;0.50;;;25.90;66.00;;;;;;5013460;28;20030;-25
2022/08/08 04:42:32;;;;;;;1.80;0.35;;;25.80;65.90;;;;;;5013686;28;20037;-25
2022/08/08 04:44:59;;;;;;;0.73;0.50;;;25.80;65.90;;;;;;5013295;28;20040;-25
2022/08/08 04:47:25;;;;;;;1.92;0.55;;;25.90;66.00;;;;;;5012885;28;20076;-25
2022/08/08 04:49:51;;;;;;;1.55;0.40;;;25.80;65.90;;;;;;5013015;28;20018;-25
2022/08/08 04:52:16;;;;;;;1.00;0.50;;;25.80;65.90;;;;;;5013071;28;20026;-25
2022/08/08 04:54:42;;;;;;;0.57;0.40;;;25.80;66.00;;;;;;5012943;28;20549;-25
2022/08/08 04:57:08;;;;;;;0.60;0.43;;;25.80;65.90;;;;;;5012457;28;20040;-25
2022/08/08 04:59:34;;;;;;;1.23;0.30;;;25.80;66.00;;;;;;4995167;28;20030;-25
2022/08/08 05:01:59;;;;;;;2.53;0.50;;;25.80;65.90;;;;;;5012603;28;20037;-25
2022/08/08 05:04:25;;;;;;;0.98;0.50;;;25.80;66.00;;;;;;5012533;28;20030;-25
2022/08/08 05:06:51;;;;;;;1.33;0.52;;;25.80;66.00;;;;;;5012337;28;20033;-25
2022/08/08 05:09:17;;;;;;;1.42;0.50;;;25.70;65.90;;;;;;5012588;28;20030;-25
2022/08/08 05:11:43;;;;;;;1.38;0.50;;;25.70;65.90;;;;;;5012741;28;20435;-25
2022/08/08 05:14:10;;;;;;;0.80;0.45;;;25.70;65.90;;;;;;4995161;28;20112;-25
2022/08/08 05:16:37;;;;;;;1.35;0.43;;;25.70;65.90;;;;;;5016369;28;20445;-25
2022/08/08 05:19:03;;;;;;;1.02;0.40;;;25.70;65.90;;;;;;5016132;28;20610;-25
2022/08/08 05:21:28;;;;;;;1.48;0.50;;;25.70;66.00;;;;;;4982309;28;20117;-25
2022/08/08 05:23:54;;;;;;;1.55;0.40;;;25.70;65.90;;;;;;4998728;28;20032;-25
2022/08/08 05:26:23;;;;;;;1.33;0.57;;;25.70;65.90;;;;;;5016029;28;20037;-25
2022/08/08 05:28:49;;;;;;;1.77;0.57;;;25.70;66.00;;;;;;5016128;28;20022;-25
2022/08/08 05:31:15;;;;;;;1.15;0.50;;;25.70;65.90;;;;;;5016143;28;20029;-25
2022/08/08 05:33:41;;;;;;;2.70;0.55;;;25.70;65.90;;;;;;5016063;28;20033;-25
2022/08/08 05:36:10;;;;;;;0.60;0.43;;;25.70;65.90;;;;;;4998092;28;20053;-25
2022/08/08 05:38:45;;;;;;;0.60;0.40;;;25.70;66.00;;;;;;5015593;28;20056;-25
2022/08/08 05:41:13;;;;;;;0.95;0.60;;;25.70;65.90;;;;;;5015797;28;20092;-25
2022/08/08 05:43:44;;;;;;;1.20;0.60;;;25.70;66.00;;;;;;5015835;28;20026;-25
2022/08/08 05:46:09;;;;;;;1.77;0.70;;;25.70;66.00;;;;;;5016121;28;20038;-24
2022/08/08 05:48:36;;;;;;;1.40;0.60;;;25.60;65.90;;;;;;5015434;28;20041;-24
2022/08/08 05:51:03;;;;;;;0.82;0.65;;;25.60;65.90;;;;;;5015760;28;20030;-24
2022/08/08 05:53:28;;;;;;;0.98;0.50;;;25.60;65.90;;;;;;5015705;28;20562;-24
2022/08/08 05:55:56;;;;;;;1.30;0.50;;;25.60;65.90;;;;;;5015596;28;20327;-25
2022/08/08 05:58:31;;;;;;;1.13;0.50;;;25.60;66.00;;;;;;5015140;28;20120;-24
2022/08/08 06:01:01;;;;;;;0.52;0.30;;;25.60;66.00;;;;;;5015399;28;20024;-24
2022/08/08 06:03:29;;;;;;;0.75;0.45;;;25.70;66.10;;;;;;5015573;28;20448;-25
2022/08/08 06:06:05;;;;;;;1.15;0.60;;;25.60;66.10;;;;;;5015526;28;20017;-24
2022/08/08 06:08:42;;;;;;;0.90;0.60;;;25.60;66.10;;;;;;5015232;28;20446;-24
2022/08/08 06:11:08;;;;;;;0.77;0.55;;;25.60;66.20;;;;;;5015538;28;20450;-24
2022/08/08 06:13:34;;;;;;;0.47;0.40;;;25.60;66.20;;;;;;5015254;28;20026;-24
2022/08/08 06:16:00;;;;;;;2.03;0.60;;;25.60;66.20;;;;;;5015389;28;20083;-24
2022/08/08 06:18:28;;;;;;;0.95;0.50;;;25.60;66.20;;;;;;4997342;28;20030;-24
2022/08/08 06:20:59;;;;;;;0.73;0.50;;;25.60;66.20;;;;;;4998508;28;20383;-24
2022/08/08 06:23:26;;;;;;;6.32;0.88;;;25.60;66.20;;;;;;5015163;28;20026;-24
2022/08/08 06:26:04;;;;;;;4.28;0.60;;;25.20;63.20;;;;;;5013977;28;20026;-24
2022/08/08 06:28:33;;;;;;;2.10;0.80;;;24.30;64.50;;;;;;5014670;28;20104;-24
2022/08/08 06:31:04;;;;;;;7.35;0.98;;;23.80;65.50;;;;;;5014791;28;20026;-24
2022/08/08 06:33:57;;;;;;;2.72;0.80;;;23.50;66.30;;;;;;5014807;28;20041;-24
2022/08/08 06:36:42;;;;;;;6.32;0.70;;;23.20;66.60;;;;;;5014671;28;20471;-24
2022/08/08 06:39:13;;;;;;;0.90;0.60;;;23.00;67.00;;;;;;5014570;28;20022;-24
2022/08/08 06:42:01;;;;;;;1.58;0.63;;;22.90;67.50;;;;;;5014687;28;20126;-24
2022/08/08 06:44:28;;;;;;;2.65;0.85;;;22.90;68.10;;;;;;5013518;28;20390;-24
2022/08/08 06:46:55;;;;;;;3.20;0.65;;;22.80;68.50;;;;;;5014141;28;20120;-24
2022/08/08 06:49:21;;;;;;;4.78;0.73;;;22.80;68.70;;;;;;5014426;28;20022;-25
2022/08/08 06:51:47;;;;;;;5.68;0.70;;;22.70;69.20;;;;;;5014564;28;20513;-25
2022/08/08 06:54:13;;;;;;;6.28;0.90;;;22.70;68.90;;;;;;4996844;28;20060;-26
2022/08/08 06:56:38;;;;;;;8.02;0.68;;;23.00;68.80;;;;;;5014371;28;20050;-25
2022/08/08 06:59:05;;;;;;;3.33;0.90;;;23.30;68.50;;;;;;5014230;28;20029;-24
2022/08/08 07:01:37;;;;;;;4.57;0.60;;;23.60;68.00;;;;;;5014654;28;20487;-24
2022/08/08 07:04:10;;;;;;;2.53;0.70;;;23.90;67.30;;;;;;5016080;28;20018;-24
2022/08/08 07:06:40;;;;;;;5.85;0.75;;;24.20;66.70;;;;;;5015616;28;20057;-24
2022/08/08 07:09:19;;;;;;;3.50;0.50;;;24.40;66.30;;;;;;5015134;28;20032;-24
2022/08/08 07:11:49;;;;;;;5.15;0.80;;;24.50;65.90;;;;;;5014695;28;20057;-24
2022/08/08 07:14:26;;;;;;;1.70;0.70;;;24.60;65.60;;;;;;4996522;28;20034;-25
2022/08/08 07:17:10;;;;;;;3.17;0.68;;;24.80;65.40;;;;;;5014243;28;20438;-24
2022/08/08 07:20:01;;;;;;;3.65;0.50;;;24.90;65.30;;;;;;5016556;28;20037;-24
2022/08/08 07:22:35;;;;;;;2.67;0.80;;;24.90;65.10;;;;;;5014103;28;20054;-24
2022/08/08 07:25:04;;;;;;;6.18;1.00;;;24.80;65.90;;;;;;5014196;28;20025;-24
2022/08/08 07:27:45;;;;;;;2.17;0.65;;;24.70;66.30;;;;;;5014192;28;20104;-25
2022/08/08 07:30:11;;;;;;;2.45;1.00;;;24.80;66.30;;;;;;5014298;28;20423;-24
2022/08/08 07:32:38;;;;;;;4.07;1.00;;;24.80;66.20;;;;;;5014344;28;20403;-23
2022/08/08 07:35:05;;;;;;;2.97;0.90;;;24.90;66.10;;;;;;5013883;28;20018;-25
2022/08/08 07:37:32;;;;;;;1.90;0.80;;;24.90;66.00;;;;;;5013285;28;20030;-24
2022/08/08 07:39:58;;;;;;;2.78;0.82;;;25.00;65.90;;;;;;5012500;28;20030;-24
2022/08/08 07:42:24;;;;;;;3.08;0.70;;;25.10;65.90;;;;;;5013749;28;20113;-24
2022/08/08 07:44:50;;;;;;;3.45;0.90;;;25.20;65.80;;;;;;5013595;28;20053;-24
2022/08/08 07:47:16;;;;;;;2.80;0.70;;;25.20;65.80;;;;;;5012982;28;20034;-24
2022/08/08 07:49:41;;;;;;;7.13;0.90;;;25.20;65.70;;;;;;5013459;28;20403;-24
2022/08/08 07:52:11;;;;;;;1.95;0.60;;;25.30;65.70;;;;;;5013376;28;20021;-24
2022/08/08 07:54:50;;;;;;;1.73;0.88;;;25.30;65.60;;;;;;5013527;28;20504;-24
2022/08/08 07:57:43;;;;;;;1.98;0.77;;;25.30;65.60;;;;;;5013041;28;20021;-23
2022/08/08 08:00:13;;;;;;;2.17;0.70;;;25.40;65.60;;;;;;5013272;28;20056;-23
2022/08/08 08:02:43;;;;;;;1.02;0.68;;;25.40;65.70;;;;;;5013249;28;20021;-24
2022/08/08 08:05:42;;;;;;;2.70;0.73;;;25.40;65.70;;;;;;5013280;28;20014;-23
2022/08/08 08:08:11;;;;;;;1.77;0.70;;;25.50;65.80;;;;;;5000434;28;20041;-23
2022/08/08 08:10:37;;;;;;;2.00;0.80;;;25.40;65.70;;;;;;5013096;28;20364;-23
2022/08/08 08:13:20;;;;;;;1.25;0.70;;;25.50;65.90;;;;;;4995464;28;20033;-23
2022/08/08 08:16:05;;;;;;;2.33;0.82;;;25.50;65.90;;;;;;5013446;28;20022;-23
2022/08/08 08:18:43;;;;;;;;;;;25.50;66.00;;;;;;5015176;28;20025;-23
2022/08/08 08:21:09;;;;;;;0.90;0.50;;;25.50;66.00;;;;;;5014269;28;19955;-23
2022/08/08 08:23:36;;;;;;;1.17;0.77;;;25.50;66.00;;;;;;5013315;28;20029;-24
2022/08/08 08:26:02;;;;;;;2.17;0.88;;;25.50;66.00;;;;;;5013026;28;20022;-24
2022/08/08 08:28:28;;;;;;;5.05;0.77;;;25.60;66.20;;;;;;4996008;28;20017;-24
2022/08/08 08:30:55;;;;;;;1.48;0.60;;;25.60;66.10;;;;;;5013841;28;20176;-24
2022/08/08 08:33:21;;;;;;;1.13;0.70;;;25.60;66.10;;;;;;5014093;28;20037;-23
2022/08/08 08:35:47;;;;;;;1.58;0.60;;;25.60;66.10;;;;;;5013036;28;20030;-24
2022/08/08 08:38:13;;;;;;;2.35;0.77;;;25.70;66.20;;;;;;5012425;28;20037;-24
2022/08/08 08:40:39;;;;;;;5.93;0.75;;;25.70;66.20;;;;;;5013015;28;20018;-24
2022/08/08 08:43:06;;;;;;;2.35;0.80;;;25.70;67.00;;;;;;5013037;28;20033;-24
2022/08/08 08:45:34;;;;;;;1.67;0.73;;;25.70;67.40;;;;;;5012748;28;20021;-24
2022/08/08 08:48:01;;;;;;;9.88;1.55;;;25.70;67.50;;;;;;5012649;28;20113;-23
2022/08/08 08:50:27;;;;;;;2.10;1.10;;;25.70;69.10;;;;;;5011889;28;20084;-24
2022/08/08 08:52:55;;;;;;;6.55;1.30;;;25.70;68.90;;;;;;5012411;28;20030;-24
2022/08/08 08:55:21;;;;;;;2.25;1.13;;;25.80;68.60;;;;;;5012720;28;20080;-24
2022/08/08 08:57:49;;;;;;;2.90;0.90;;;25.80;68.30;;;;;;5012014;28;20026;-23
2022/08/08 09:00:15;;;;;;;3.97;1.20;;;25.90;68.20;;;;;;5012205;28;20026;-24
2022/08/08 09:02:43;;;;;;;2.72;1.42;;;26.00;68.20;;;;;;5012323;28;20026;-23
2022/08/08 09:05:11;;;;;;;2.38;1.10;;;26.00;68.10;;;;;;5012508;28;20030;-23
2022/08/08 09:07:40;;;;;;;1.80;1.00;;;26.00;68.00;;;;;;5012002;28;20105;-24
2022/08/08 09:10:06;;;;;;;1.73;1.17;;;26.00;68.00;;;;;;5012550;28;20494;-24
2022/08/08 09:12:34;;;;;;;7.15;1.20;;;26.00;68.00;;;;;;5012786;28;20022;-24
2022/08/08 09:15:00;;;;;;;3.28;1.10;;;26.00;68.00;;;;;;5012248;28;20157;-24
2022/08/08 09:17:26;;;;;;;1.80;0.90;;;26.10;68.00;;;;;;5011886;28;20415;-24
2022/08/08 09:19:56;;;;;;;1.27;1.00;;;26.10;67.90;;;;;;5012278;28;20030;-24
2022/08/08 09:22:23;;;;;;;1.75;1.10;;;26.10;67.90;;;;;;5012298;28;20427;-24
2022/08/08 09:24:50;;;;;;;3.13;1.17;;;26.10;67.80;;;;;;4994638;28;20058;-24
2022/08/08 09:27:17;;;;;;;2.15;1.13;;;26.10;67.70;;;;;;5011792;28;20082;-24
2022/08/08 09:30:04;;;;;;;2.05;1.00;;;26.20;67.70;;;;;;5012049;28;20029;-24
2022/08/08 09:32:39;;;;;;;2.38;1.05;;;26.20;67.70;;;;;;5012143;28;20022;-24
2022/08/08 09:35:19;;;;;;;1.60;1.00;;;26.20;67.70;;;;;;5012058;28;20018;-24
2022/08/08 09:37:54;;;;;;;2.20;1.27;;;26.20;67.50;;;;;;5011603;28;20052;-24
2022/08/08 09:40:25;;;;;;;1.25;0.90;;;26.30;67.50;;;;;;4994766;28;20030;-24
2022/08/08 09:43:40;;;;;;;2.35;0.80;;;26.30;67.50;;;;;;5011903;28;20454;-24
2022/08/08 09:46:07;;;;;;;2.20;0.93;;;26.30;67.30;;;;;;4978309;28;20038;-24
2022/08/08 09:48:37;;;;;;;1.58;0.95;;;26.40;67.20;;;;;;5011871;28;20367;-24
2022/08/08 09:51:03;;;;;;;3.78;1.52;;;26.30;67.10;;;;;;5011806;28;20019;-24
2022/08/08 09:53:44;;;;;;;2.05;1.02;;;26.40;67.20;;;;;;5011987;28;20057;-24
2022/08/08 09:56:11;;;;;;;1.15;1.02;;;26.40;67.10;;;;;;5011840;28;20033;-23
2022/08/08 09:58:39;;;;;;;1.63;0.90;;;26.40;67.00;;;;;;4993967;28;20026;-24
2022/08/08 10:01:09;;;;;;;1.40;0.85;;;26.50;67.00;;;;;;5013733;28;20139;-24
2022/08/08 10:03:40;;;;;;;3.70;0.85;;;26.50;66.90;;;;;;5015503;28;20064;-23
2022/08/08 10:06:17;;;;;;;2.17;1.10;;;26.50;66.90;;;;;;5015621;28;20045;-24
2022/08/08 10:08:44;;;;;;;1.27;0.80;;;26.50;66.80;;;;;;5015433;28;20029;-24
2022/08/08 10:11:11;;;;;;;1.33;0.98;;;26.50;66.70;;;;;;5015199;28;20026;-24
2022/08/08 10:13:37;;;;;;;1.63;0.80;;;26.40;66.70;;;;;;5015456;28;20391;-23
2022/08/08 10:16:03;;;;;;;2.95;0.90;;;26.40;66.70;;;;;;4997724;28;20038;-23
2022/08/08 10:18:32;;;;;;;1.40;0.90;;;26.50;66.80;;;;;;5015013;28;20108;-24
2022/08/08 10:21:09;;;;;;;1.42;1.00;;;26.40;66.80;;;;;;5015254;28;20029;-24
2022/08/08 10:23:47;;;;;;;1.20;0.90;;;26.40;66.80;;;;;;5015062;28;20480;-24
2022/08/08 10:26:25;;;;;;;2.47;0.88;;;26.40;66.80;;;;;;5015339;28;20483;-23
2022/08/08 10:29:00;;;;;;;1.83;0.70;;;26.40;66.90;;;;;;5015433;28;20524;-24
2022/08/08 10:34:24;;;;;;;3.45;0.90;;;26.50;67.00;;;;;;4999122;28;20452;-23
2022/08/08 10:36:51;;;;;;;1.08;0.80;;;26.50;66.90;;;;;;5014696;28;20029;-23
2022/08/08 10:39:19;;;;;;;0.80;0.80;;;26.40;66.80;;;;;;5014760;28;20034;-23
2022/08/08 10:42:03;;;;;;;1.52;0.88;;;26.50;66.90;;;;;;5014952;28;20096;-23
2022/08/08 10:44:36;;;;;;;1.23;0.75;;;26.50;66.80;;;;;;5014815;28;20044;-24
2022/08/08 10:47:15;;;;;;;2.40;0.80;;;26.60;66.90;;;;;;5014415;28;20438;-23
2022/08/08 10:49:51;;;;;;;1.60;0.88;;;26.60;66.90;;;;;;5014787;28;20053;-23
2022/08/08 10:52:37;;;;;;;1.20;0.70;;;26.60;66.90;;;;;;5014733;28;20060;-23
2022/08/08 10:55:05;;;;;;;2.10;0.90;;;26.60;66.90;;;;;;5014603;28;20113;-23
2022/08/08 10:57:46;;;;;;;0.90;0.70;;;26.60;66.90;;;;;;5014194;28;20022;-24
2022/08/08 11:00:13;;;;;;;0.80;0.60;;;26.60;66.90;;;;;;5015033;28;20028;-23
2022/08/08 11:02:39;;;;;;;1.35;0.73;;;26.70;67.00;;;;;;5014376;28;20022;-24
2022/08/08 11:07:53;;;;;;;1.20;0.80;;;26.70;67.00;;;;;;5017169;28;20437;-24
2022/08/08 11:10:23;;;;;;;1.02;0.90;;;26.70;67.00;;;;;;5014398;28;20038;-24
2022/08/08 11:12:54;;;;;;;1.00;0.73;;;26.70;66.80;;;;;;5014144;28;20371;-23
2022/08/08 11:15:22;;;;;;;1.10;0.68;;;26.70;66.90;;;;;;5013430;28;20033;-24
2022/08/08 11:17:48;;;;;;;1.67;0.80;;;26.70;67.00;;;;;;5014001;28;20491;-23
2022/08/08 11:20:23;;;;;;;1.23;0.80;;;26.70;67.10;;;;;;5014075;28;20026;-24
2022/08/08 11:22:54;;;;;;;1.17;0.70;;;26.60;67.90;;;;;;5014385;28;20037;-23
2022/08/08 11:25:25;;;;;;;1.05;0.75;;;26.60;67.10;;;;;;5013976;28;20030;-24
2022/08/08 11:27:55;;;;;;;1.25;0.75;;;26.60;67.20;;;;;;5014331;28;20096;-24
2022/08/08 11:30:23;;;;;;;0.95;0.70;;;26.70;67.20;;;;;;5014006;28;20506;-23
2022/08/08 11:32:52;;;;;;;3.05;0.73;;;26.70;67.20;;;;;;5014105;28;20022;-23
2022/08/08 11:35:19;;;;;;;1.25;0.80;;;26.70;67.20;;;;;;5014117;28;20022;-24
2022/08/08 11:37:45;;;;;;;2.67;0.73;;;26.70;67.20;;;;;;5009351;28;20488;-23
2022/08/08 11:40:12;;;;;;;0.98;0.85;;;26.70;67.10;;;;;;5014168;28;20542;-23
2022/08/08 11:42:41;;;;;;;0.95;0.70;;;26.70;67.10;;;;;;5013812;28;20022;-23
2022/08/08 11:45:08;;;;;;;0.85;0.60;;;26.80;67.10;;;;;;5013818;28;20025;-24
2022/08/08 11:47:36;;;;;;;0.80;0.70;;;26.70;67.00;;;;;;5013901;28;20116;-23
2022/08/08 11:50:05;;;;;;;1.60;0.75;;;26.70;67.20;;;;;;5013750;28;20029;-24
2022/08/08 11:52:32;;;;;;;1.48;0.80;;;26.70;67.30;;;;;;5013896;28;20109;-23
2022/08/08 11:54:58;;;;;;;1.10;0.80;;;26.70;67.30;;;;;;5011704;28;20467;-24
2022/08/08 11:57:28;;;;;;;4.50;0.80;;;26.70;67.30;;;;;;5013616;28;20034;-23
2022/08/08 11:59:54;;;;;;;2.33;0.90;;;26.70;67.40;;;;;;5013655;28;20034;-23
2022/08/08 12:02:21;;;;;;;0.82;0.75;;;26.70;67.40;;;;;;5020297;28;20029;-23
2022/08/08 12:04:47;;;;;;;1.88;0.80;;;26.70;67.30;;;;;;5015372;28;20033;-23
2022/08/08 12:07:13;;;;;;;0.80;0.75;;;26.70;67.30;;;;;;4996553;28;20403;-24
2022/08/08 12:09:39;;;;;;;0.73;0.70;;;26.70;67.20;;;;;;4995560;28;20036;-23
2022/08/08 12:12:04;;;;;;;0.80;0.80;;;26.80;67.30;;;;;;5012896;28;20063;-24
2022/08/08 12:14:31;;;;;;;1.00;0.70;;;26.80;67.20;;;;;;5013877;28;20481;-23
2022/08/08 12:16:56;;;;;;;0.75;0.65;;;26.80;67.20;;;;;;5013591;28;20423;-24
2022/08/08 12:19:24;;;;;;;0.82;0.52;;;26.80;67.10;;;;;;5013317;28;20052;-24
2022/08/08 12:21:51;;;;;;;1.55;0.85;;;26.90;67.10;;;;;;5014244;28;20107;-24
2022/08/08 12:24:18;;;;;;;0.77;0.73;;;26.90;67.10;;;;;;4995171;28;20026;-24
2022/08/08 12:26:51;;;;;;;1.00;0.70;;;26.90;67.10;;;;;;5013704;28;20292;-23
2022/08/08 12:29:34;;;;;;;1.30;0.88;;;26.90;67.10;;;;;;5013285;28;20119;-23
2022/08/08 12:32:07;;;;;;;1.42;0.68;;;26.90;67.10;;;;;;5013250;28;20026;-24
2022/08/08 12:34:36;;;;;;;1.42;0.65;;;26.90;67.10;;;;;;5013309;28;20026;-24
2022/08/08 12:37:06;;;;;;;1.45;0.90;;;26.90;67.10;;;;;;5012907;28;20030;-24
2022/08/08 12:39:32;;;;;;;1.77;0.70;;;26.90;67.90;;;;;;5013245;28;20057;-23
2022/08/08 12:42:00;;;;;;;1.20;0.90;;;26.90;67.00;;;;;;4995450;28;20455;-23
2022/08/08 12:44:28;;;;;;;1.63;0.75;;;27.00;67.10;;;;;;5012464;28;20480;-23
2022/08/08 12:46:58;;;;;;;1.83;0.95;;;27.00;67.10;;;;;;5012346;28;20033;-24
2022/08/08 12:49:32;;;;;;;1.05;0.80;;;27.00;67.10;;;;;;5010110;28;20029;-23
2022/08/08 12:51:58;;;;;;;1.20;0.60;;;27.00;67.00;;;;;;5012662;28;20026;-24
2022/08/08 12:54:28;;;;;;;0.88;0.68;;;27.00;67.00;;;;;;5012729;28;20030;-24
2022/08/08 12:56:55;;;;;;;0.90;0.77;;;27.00;67.10;;;;;;5011478;28;20025;-23
2022/08/08 12:59:28;;;;;;;0.98;0.80;;;27.00;67.00;;;;;;5004351;28;20030;-23
2022/08/08 13:01:59;;;;;;;1.35;0.70;;;27.00;67.00;;;;;;5001136;28;20376;-24
2022/08/08 13:04:24;;;;;;;1.05;0.60;;;27.10;67.10;;;;;;5012952;28;20029;-23
2022/08/08 13:07:03;;;;;;;0.90;0.63;;;27.10;67.00;;;;;;5011760;28;20022;-23
2022/08/08 13:09:29;;;;;;;2.75;0.73;;;27.00;67.00;;;;;;5011709;28;20061;-24
2022/08/08 13:11:55;;;;;;;0.52;0.52;;;27.10;67.00;;;;;;5012527;28;20479;-24
2022/08/08 13:14:20;;;;;;;1.10;0.90;;;27.10;67.00;;;;;;5012428;28;20053;-24
2022/08/08 13:20:16;;;;;;;0.70;0.63;;;27.10;66.90;;;;;;4999007;28;20049;-24
2022/08/08 13:22:43;;;;;;;0.70;0.70;;;27.10;66.90;;;;;;5018082;28;20105;-24
2022/08/08 13:25:14;;;;;;;1.15;0.80;;;27.10;66.90;;;;;;5012059;28;20120;-24
2022/08/08 13:27:40;;;;;;;0.90;0.70;;;27.10;66.90;;;;;;5012804;28;20029;-23
2022/08/08 13:30:07;;;;;;;1.38;0.73;;;27.10;66.90;;;;;;5012081;28;20018;-24
2022/08/08 13:32:34;;;;;;;0.70;0.70;;;27.10;67.00;;;;;;5012358;28;20109;-24